Time;durP1;ratioP1;P1;durP2;ratioP2;P2;SDS_P1;SDS_P2;PMS_P1;PMS_P2;Temp;Humidity;BMP_temperature;BMP_pressure;BME280_temperature;BME280_humidity;BME280_pressure;Samples;Min_cycle;Max_cycle;Signal;HPM_P1;HPM_P2
2023/10/06 00:00:19;;;;;;;15.20;14.63;;;10.00;99.90;;;;;;5133451;27;20256;-69
2023/10/06 00:02:45;;;;;;;15.67;15.07;;;10.00;99.90;;;;;;5131991;27;20282;-68
2023/10/06 00:05:13;;;;;;;15.77;15.17;;;9.90;99.90;;;;;;5131475;27;20693;-69
2023/10/06 00:07:40;;;;;;;16.80;16.20;;;9.90;99.90;;;;;;5131969;27;20248;-70
2023/10/06 00:10:17;;;;;;;14.60;14.07;;;9.80;99.90;;;;;;5131588;27;20211;-68
2023/10/06 00:12:50;;;;;;;14.57;14.07;;;9.80;99.90;;;;;;5131987;27;20305;-69
2023/10/06 00:15:24;;;;;;;14.07;13.57;;;9.70;99.90;;;;;;5131896;27;20201;-69
2023/10/06 00:17:55;;;;;;;14.50;14.00;;;9.70;99.90;;;;;;5131490;27;20205;-69
2023/10/06 00:20:38;;;;;;;15.43;14.90;;;9.70;99.90;;;;;;5131550;28;20205;-69
2023/10/06 00:23:06;;;;;;;15.30;14.70;;;9.70;99.90;;;;;;5131404;28;20621;-69
2023/10/06 00:25:36;;;;;;;14.40;13.90;;;9.70;99.90;;;;;;5131612;28;20290;-69
2023/10/06 00:28:09;;;;;;;14.63;14.10;;;9.60;99.90;;;;;;5131099;28;20731;-69
2023/10/06 00:30:36;;;;;;;15.10;14.60;;;9.60;99.90;;;;;;5131923;28;20205;-69
2023/10/06 00:33:05;;;;;;;16.23;15.63;;;9.50;99.90;;;;;;5131814;28;20272;-70
2023/10/06 00:35:32;;;;;;;17.07;16.47;;;9.40;99.90;;;;;;5131694;28;20585;-71
2023/10/06 00:38:10;;;;;;;15.93;15.37;;;9.40;99.90;;;;;;5131495;28;20208;-70
2023/10/06 00:40:39;;;;;;;16.20;15.60;;;9.30;99.90;;;;;;5131882;28;20293;-70
2023/10/06 00:43:08;;;;;;;17.10;16.50;;;9.40;99.90;;;;;;5132126;28;20229;-68
2023/10/06 00:45:39;;;;;;;18.27;17.63;;;9.40;99.90;;;;;;5131951;28;20213;-69
2023/10/06 00:48:14;;;;;;;17.00;16.40;;;9.40;99.90;;;;;;5123517;28;20688;-69
2023/10/06 00:50:41;;;;;;;16.87;16.27;;;9.40;99.90;;;;;;5131937;28;20224;-69
2023/10/06 00:53:10;;;;;;;16.42;15.82;;;9.50;99.90;;;;;;5128721;28;20301;-70
2023/10/06 00:55:39;;;;;;;18.10;17.50;;;9.50;99.90;;;;;;5146529;28;20237;-71
2023/10/06 00:58:10;;;;;;;16.97;16.37;;;9.60;99.90;;;;;;5143454;28;20220;-68
2023/10/06 01:00:38;;;;;;;15.37;14.87;;;9.50;99.90;;;;;;5142051;28;20216;-69
2023/10/06 01:03:11;;;;;;;15.67;15.07;;;9.60;99.90;;;;;;5146914;27;20239;-69
2023/10/06 01:05:38;;;;;;;16.60;16.00;;;9.60;99.90;;;;;;5143888;28;20206;-69
2023/10/06 01:08:07;;;;;;;15.35;14.77;;;9.50;99.90;;;;;;5131597;28;20228;-70
2023/10/06 01:10:35;;;;;;;15.80;15.20;;;9.50;99.90;;;;;;5131438;28;20206;-68
2023/10/06 01:13:12;;;;;;;16.03;15.47;;;9.60;99.90;;;;;;5131108;28;20738;-68
2023/10/06 01:15:45;;;;;;;16.38;15.77;;;9.60;99.90;;;;;;5131353;28;20211;-68
2023/10/06 01:18:19;;;;;;;15.60;15.00;;;9.50;99.90;;;;;;5130743;28;20755;-68
2023/10/06 01:20:48;;;;;;;14.80;14.30;;;9.50;99.90;;;;;;5131062;28;20209;-68
2023/10/06 01:23:21;;;;;;;15.27;14.77;;;9.50;99.90;;;;;;5132518;27;20240;-69
2023/10/06 01:25:53;;;;;;;15.18;14.68;;;9.40;99.90;;;;;;5135331;27;20391;-69
2023/10/06 01:28:20;;;;;;;15.32;14.82;;;9.40;99.90;;;;;;5130976;27;20212;-68
2023/10/06 01:30:47;;;;;;;16.67;16.07;;;9.40;99.90;;;;;;5112562;28;20202;-69
2023/10/06 01:33:13;;;;;;;17.67;17.07;;;9.30;99.90;;;;;;5114148;28;20281;-69
2023/10/06 01:35:42;;;;;;;15.33;14.77;;;9.20;99.90;;;;;;5109829;28;20210;-69
2023/10/06 01:38:18;;;;;;;15.63;15.13;;;9.30;99.90;;;;;;5111557;28;20206;-68
2023/10/06 01:40:50;;;;;;;17.27;16.67;;;9.30;99.90;;;;;;5114409;28;20581;-70
2023/10/06 01:43:22;;;;;;;17.57;16.97;;;9.30;99.90;;;;;;5114392;28;20237;-69
2023/10/06 01:45:49;;;;;;;16.77;16.17;;;9.30;99.90;;;;;;5116282;28;20206;-69
2023/10/06 01:48:29;;;;;;;18.00;17.40;;;9.30;99.90;;;;;;5118353;28;20237;-69
2023/10/06 01:50:56;;;;;;;18.17;17.53;;;9.30;99.90;;;;;;5111046;28;20209;-69
2023/10/06 01:53:25;;;;;;;17.10;16.50;;;9.30;99.90;;;;;;5118854;28;20688;-70
2023/10/06 01:55:54;;;;;;;19.70;19.00;;;9.30;99.90;;;;;;5118946;28;20594;-70
2023/10/06 01:58:21;;;;;;;18.23;17.63;;;9.30;99.90;;;;;;5115233;28;20209;-70
2023/10/06 02:00:48;;;;;;;20.48;19.75;;;9.30;99.90;;;;;;5117300;28;20233;-70
2023/10/06 02:03:18;;;;;;;18.73;18.08;;;9.30;99.90;;;;;;5113215;28;20238;-69
2023/10/06 02:05:44;;;;;;;20.40;19.67;;;9.30;99.90;;;;;;5113581;28;20608;-70
2023/10/06 02:08:14;;;;;;;18.07;17.47;;;9.30;99.90;;;;;;5113068;28;20210;-69
2023/10/06 02:10:44;;;;;;;20.77;20.07;;;9.30;99.90;;;;;;5113463;28;20239;-70
2023/10/06 02:13:14;;;;;;;20.15;19.45;;;9.30;99.90;;;;;;5113271;28;20241;-69
2023/10/06 02:15:41;;;;;;;22.57;21.77;;;9.30;99.90;;;;;;5107134;28;20676;-68
2023/10/06 02:18:12;;;;;;;22.03;21.23;;;9.30;99.90;;;;;;5112778;28;20317;-70
2023/10/06 02:20:41;;;;;;;20.73;19.93;;;9.30;99.90;;;;;;5113023;28;20594;-69
2023/10/06 02:23:08;;;;;;;20.23;19.53;;;9.30;99.90;;;;;;5112660;28;20222;-68
2023/10/06 02:25:36;;;;;;;18.50;17.80;;;9.30;99.90;;;;;;5112935;28;20267;-69
2023/10/06 02:28:05;;;;;;;20.07;19.37;;;9.30;99.90;;;;;;5112707;28;20292;-70
2023/10/06 02:30:36;;;;;;;19.42;18.67;;;9.30;99.90;;;;;;5112825;28;20646;-70
2023/10/06 02:33:05;;;;;;;21.57;20.77;;;9.40;99.90;;;;;;5112505;28;20346;-69
2023/10/06 02:35:32;;;;;;;19.50;18.80;;;9.40;99.90;;;;;;5112879;28;20249;-70
2023/10/06 02:38:04;;;;;;;18.83;18.13;;;9.40;99.90;;;;;;5112608;28;20222;-70
2023/10/06 02:40:38;;;;;;;19.55;18.85;;;9.40;99.90;;;;;;5112405;28;20676;-69
2023/10/06 02:43:07;;;;;;;18.80;18.10;;;9.60;99.90;;;;;;5112591;28;20233;-69
2023/10/06 02:45:40;;;;;;;18.83;18.13;;;9.40;99.90;;;;;;5112734;28;20231;-69
2023/10/06 02:48:14;;;;;;;18.00;17.30;;;9.50;99.90;;;;;;5112458;28;20202;-69
2023/10/06 02:50:44;;;;;;;19.30;18.60;;;9.40;99.90;;;;;;5112553;28;20687;-69
2023/10/06 02:53:14;;;;;;;17.60;17.00;;;9.40;99.90;;;;;;5114682;28;20236;-69
2023/10/06 02:55:44;;;;;;;17.60;17.00;;;9.40;99.90;;;;;;5115000;28;20210;-69
2023/10/06 02:58:23;;;;;;;17.13;16.53;;;9.40;99.90;;;;;;5112861;28;20297;-68
2023/10/06 03:00:52;;;;;;;17.73;17.13;;;9.40;99.90;;;;;;5116120;28;20221;-69
2023/10/06 03:03:22;;;;;;;17.95;17.35;;;9.40;99.90;;;;;;5112350;28;20234;-69
2023/10/06 03:05:51;;;;;;;18.67;18.00;;;9.40;99.90;;;;;;5110861;28;20594;-70
2023/10/06 03:08:20;;;;;;;17.45;16.85;;;9.40;99.90;;;;;;5112175;28;20634;-70
2023/10/06 03:10:48;;;;;;;20.90;20.20;;;9.20;99.90;;;;;;5112431;28;20206;-69
2023/10/06 03:13:23;;;;;;;21.00;20.10;;;9.20;99.90;;;;;;5111934;28;20708;-69
2023/10/06 03:15:52;;;;;;;18.63;17.93;;;9.20;99.90;;;;;;5112521;28;20305;-69
2023/10/06 03:18:20;;;;;;;18.90;18.20;;;9.20;99.90;;;;;;5112838;28;20236;-70
2023/10/06 03:20:48;;;;;;;19.93;19.23;;;9.20;99.90;;;;;;5112614;28;20229;-69
2023/10/06 03:23:26;;;;;;;19.70;19.00;;;9.20;99.90;;;;;;5111997;28;20226;-69
2023/10/06 03:25:56;;;;;;;22.17;21.37;;;9.20;99.90;;;;;;5105181;28;20214;-69
2023/10/06 03:28:25;;;;;;;20.93;20.20;;;9.10;99.90;;;;;;5111294;28;20690;-69
2023/10/06 03:30:55;;;;;;;18.30;17.60;;;9.10;99.90;;;;;;5111888;28;20224;-70
2023/10/06 03:33:23;;;;;;;15.90;15.30;;;9.10;99.90;;;;;;5111799;28;20234;-68
2023/10/06 03:35:50;;;;;;;16.90;16.30;;;9.00;99.90;;;;;;5111783;28;20289;-68
2023/10/06 03:38:34;;;;;;;16.73;16.13;;;8.90;99.90;;;;;;5128960;27;20233;-69
2023/10/06 03:43:47;;;;;;;15.43;14.83;;;8.80;99.90;;;;;;5127518;27;20259;-70
2023/10/06 03:46:18;;;;;;;16.10;15.50;;;8.80;99.90;;;;;;5134128;27;20227;-70
2023/10/06 03:48:46;;;;;;;15.70;15.10;;;8.70;99.90;;;;;;5142914;27;20216;-70
2023/10/06 03:51:15;;;;;;;16.77;16.17;;;8.70;99.90;;;;;;5132406;27;20205;-69
2023/10/06 03:53:44;;;;;;;14.60;14.10;;;8.70;99.90;;;;;;5132405;27;20247;-71
2023/10/06 03:56:12;;;;;;;13.67;13.17;;;8.70;99.90;;;;;;5132250;27;20209;-71
2023/10/06 03:58:39;;;;;;;16.13;15.53;;;8.80;99.90;;;;;;5132052;27;20225;-69
2023/10/06 04:01:09;;;;;;;17.80;17.10;;;8.80;99.90;;;;;;5134925;27;20228;-70
2023/10/06 04:03:38;;;;;;;13.98;13.48;;;8.80;99.90;;;;;;5143491;27;20237;-70
2023/10/06 04:06:05;;;;;;;16.10;15.50;;;8.70;99.90;;;;;;5143393;27;20230;-70
2023/10/06 04:08:33;;;;;;;14.63;14.13;;;8.70;99.90;;;;;;5140122;27;20209;-69
2023/10/06 04:11:00;;;;;;;15.25;14.65;;;8.70;99.90;;;;;;5136707;27;20288;-69
2023/10/06 04:13:28;;;;;;;14.70;14.20;;;8.70;99.90;;;;;;5143430;27;20290;-70
2023/10/06 04:15:57;;;;;;;14.70;14.20;;;8.60;99.90;;;;;;5135511;27;20683;-69
2023/10/06 04:18:24;;;;;;;16.10;15.50;;;8.70;99.90;;;;;;5131490;28;20694;-70
2023/10/06 04:20:55;;;;;;;13.32;12.82;;;8.60;99.90;;;;;;5131003;28;20632;-69
2023/10/06 04:23:23;;;;;;;14.53;14.03;;;8.60;99.90;;;;;;5123519;28;20638;-69
2023/10/06 04:25:54;;;;;;;14.17;13.67;;;8.70;99.90;;;;;;5130878;28;20205;-69
2023/10/06 04:28:22;;;;;;;14.00;13.50;;;8.60;99.90;;;;;;5131372;28;20213;-70
2023/10/06 04:30:50;;;;;;;13.63;13.13;;;8.60;99.90;;;;;;5131611;28;20280;-69
2023/10/06 04:33:18;;;;;;;13.87;13.37;;;8.60;99.90;;;;;;5131404;28;20312;-68
2023/10/06 04:35:52;;;;;;;13.60;13.10;;;8.60;99.90;;;;;;5131459;28;20201;-69
2023/10/06 04:38:20;;;;;;;14.50;13.93;;;8.60;99.90;;;;;;5130664;28;20329;-70
2023/10/06 04:40:48;;;;;;;14.00;13.50;;;8.60;99.90;;;;;;5120528;28;20200;-69
2023/10/06 04:43:17;;;;;;;13.03;12.53;;;8.60;99.90;;;;;;5130644;28;20235;-70
2023/10/06 04:45:44;;;;;;;13.38;12.88;;;8.60;99.90;;;;;;5130785;28;20626;-70
2023/10/06 04:48:12;;;;;;;14.03;13.53;;;8.60;99.90;;;;;;5129246;28;20212;-69
2023/10/06 04:50:39;;;;;;;13.90;13.40;;;8.60;99.90;;;;;;5124342;28;20644;-68
2023/10/06 04:53:06;;;;;;;13.27;12.77;;;8.60;99.90;;;;;;5131272;28;20229;-71
2023/10/06 04:55:37;;;;;;;12.90;12.40;;;8.50;99.90;;;;;;5131008;28;20213;-71
2023/10/06 04:58:05;;;;;;;13.50;13.00;;;8.60;99.90;;;;;;5133916;27;20269;-69
2023/10/06 05:00:33;;;;;;;13.53;13.03;;;8.50;99.90;;;;;;5134743;27;20201;-69
2023/10/06 05:03:04;;;;;;;14.17;13.67;;;8.50;99.90;;;;;;5134850;27;20241;-70
2023/10/06 05:05:35;;;;;;;15.00;14.40;;;8.60;99.90;;;;;;5133014;27;20210;-70
2023/10/06 05:08:02;;;;;;;14.17;13.67;;;8.60;99.90;;;;;;5137163;27;20205;-70
2023/10/06 05:10:31;;;;;;;13.73;13.23;;;8.60;99.90;;;;;;5136920;27;20211;-70
2023/10/06 05:13:02;;;;;;;14.97;14.07;;;8.60;99.90;;;;;;5134926;27;20225;-70
2023/10/06 05:15:30;;;;;;;14.75;14.25;;;8.70;99.90;;;;;;5135238;27;20642;-69
2023/10/06 05:17:58;;;;;;;14.13;13.63;;;8.80;99.90;;;;;;5134236;27;20299;-68
2023/10/06 05:20:29;;;;;;;15.63;14.93;;;8.80;99.90;;;;;;5134488;27;20209;-68
2023/10/06 05:22:58;;;;;;;14.47;13.97;;;8.70;99.90;;;;;;5134632;27;20229;-68
2023/10/06 05:25:26;;;;;;;14.87;14.33;;;8.70;99.90;;;;;;5127839;27;20262;-68
2023/10/06 05:27:53;;;;;;;14.53;14.03;;;8.70;99.90;;;;;;5134317;27;20265;-69
2023/10/06 05:30:22;;;;;;;14.13;13.63;;;8.60;99.90;;;;;;5136074;27;20205;-69
2023/10/06 05:32:49;;;;;;;14.60;14.00;;;8.60;99.90;;;;;;5135585;27;20225;-68
2023/10/06 05:35:16;;;;;;;14.25;13.70;;;8.60;99.90;;;;;;5135452;27;20209;-68
2023/10/06 05:37:44;;;;;;;14.30;13.80;;;8.60;99.90;;;;;;5132920;27;20239;-68
2023/10/06 05:40:18;;;;;;;14.13;13.63;;;8.60;99.90;;;;;;5135212;27;20678;-67
2023/10/06 05:42:49;;;;;;;13.18;12.68;;;8.60;99.90;;;;;;5134646;27;20332;-70
2023/10/06 05:45:18;;;;;;;14.03;13.53;;;8.70;99.90;;;;;;5134325;27;20205;-68
2023/10/06 05:47:47;;;;;;;13.97;13.47;;;8.70;99.90;;;;;;5134139;27;20208;-69
2023/10/06 05:50:26;;;;;;;14.60;14.10;;;8.70;99.90;;;;;;5127015;27;20209;-67
2023/10/06 05:52:57;;;;;;;14.67;14.17;;;8.70;99.90;;;;;;5134117;27;20225;-68
2023/10/06 05:55:25;;;;;;;14.33;13.83;;;8.70;99.90;;;;;;5126895;27;20348;-67
2023/10/06 05:57:55;;;;;;;15.40;14.80;;;8.70;99.90;;;;;;5133795;27;20312;-68
2023/10/06 06:00:25;;;;;;;14.70;14.10;;;8.80;99.90;;;;;;5132316;27;20242;-69
2023/10/06 06:02:54;;;;;;;17.97;17.27;;;8.80;99.90;;;;;;5128523;27;20237;-70
2023/10/06 06:05:22;;;;;;;15.00;14.47;;;8.80;99.90;;;;;;5133741;27;20273;-68
2023/10/06 06:07:51;;;;;;;14.57;14.07;;;8.80;99.90;;;;;;5133167;27;20289;-68
2023/10/06 06:10:18;;;;;;;15.50;14.90;;;8.80;99.90;;;;;;5133004;27;20221;-69
2023/10/06 06:12:47;;;;;;;15.15;14.57;;;8.80;99.90;;;;;;5142962;27;20314;-68
2023/10/06 06:15:14;;;;;;;15.33;14.80;;;8.80;99.90;;;;;;5133529;27;20209;-68
2023/10/06 06:17:41;;;;;;;15.95;15.25;;;8.80;99.90;;;;;;5133189;27;20256;-68
2023/10/06 06:20:14;;;;;;;16.80;16.00;;;8.80;99.90;;;;;;5132539;27;20209;-67
2023/10/06 06:22:43;;;;;;;15.68;15.07;;;8.80;99.90;;;;;;5132753;27;20225;-68
2023/10/06 06:25:10;;;;;;;16.55;15.93;;;8.90;99.90;;;;;;5132662;27;20216;-69
2023/10/06 06:27:37;;;;;;;16.88;16.27;;;8.90;99.90;;;;;;5132502;27;20650;-69
2023/10/06 06:30:05;;;;;;;17.25;16.63;;;8.90;99.90;;;;;;5132854;27;20215;-69
2023/10/06 06:32:32;;;;;;;16.30;15.70;;;9.00;99.90;;;;;;5126018;27;20690;-67
2023/10/06 06:34:59;;;;;;;16.37;15.77;;;9.00;99.90;;;;;;5132788;27;20212;-68
2023/10/06 06:37:27;;;;;;;16.52;15.93;;;9.10;99.90;;;;;;5132056;27;20211;-67
2023/10/06 06:39:55;;;;;;;19.30;18.57;;;9.20;99.90;;;;;;5126813;27;20218;-69
2023/10/06 06:42:21;;;;;;;18.73;18.03;;;9.30;99.90;;;;;;5131508;27;20244;-68
2023/10/06 06:44:50;;;;;;;21.17;20.47;;;9.40;99.90;;;;;;5132152;27;20205;-68
2023/10/06 06:47:17;;;;;;;20.38;19.58;;;9.40;99.90;;;;;;5130588;27;20212;-68
2023/10/06 06:49:48;;;;;;;20.47;19.77;;;9.50;99.90;;;;;;5132067;27;20245;-69
2023/10/06 06:52:15;;;;;;;18.75;18.05;;;9.60;99.90;;;;;;5132441;27;20229;-68
2023/10/06 06:54:46;;;;;;;21.10;20.33;;;9.70;99.90;;;;;;5132723;27;20212;-69
2023/10/06 06:57:16;;;;;;;20.93;20.03;;;9.80;99.90;;;;;;5131995;27;20212;-68
2023/10/06 06:59:44;;;;;;;17.37;16.77;;;9.90;99.90;;;;;;5132378;27;20209;-68
2023/10/06 07:02:12;;;;;;;19.33;18.63;;;10.00;99.90;;;;;;5132074;27;20646;-68
2023/10/06 07:04:39;;;;;;;19.70;18.95;;;10.10;99.90;;;;;;5132426;27;20201;-69
2023/10/06 07:07:06;;;;;;;16.80;16.20;;;10.10;99.90;;;;;;5125114;27;20206;-69
2023/10/06 07:09:33;;;;;;;19.77;19.07;;;10.30;99.90;;;;;;5130345;27;20241;-69
2023/10/06 07:12:01;;;;;;;20.77;19.97;;;10.40;99.90;;;;;;5132239;27;20225;-68
2023/10/06 07:14:28;;;;;;;18.20;17.52;;;10.40;99.90;;;;;;5130900;27;20206;-68
2023/10/06 07:16:56;;;;;;;17.40;16.80;;;10.50;99.90;;;;;;5131994;27;20224;-69
2023/10/06 07:19:24;;;;;;;18.43;17.80;;;10.70;99.90;;;;;;5131777;27;20233;-69
2023/10/06 07:21:53;;;;;;;19.10;18.40;;;10.80;99.90;;;;;;5131560;27;20349;-69
2023/10/06 07:24:19;;;;;;;18.90;18.20;;;11.00;99.90;;;;;;5132125;27;20212;-69
2023/10/06 07:26:46;;;;;;;18.73;18.03;;;11.10;99.90;;;;;;5131969;27;20209;-68
2023/10/06 07:29:15;;;;;;;20.88;20.13;;;11.20;99.90;;;;;;5131921;27;20742;-69
2023/10/06 07:31:42;;;;;;;19.93;19.20;;;11.40;99.90;;;;;;5131750;27;20680;-67
2023/10/06 07:34:11;;;;;;;23.37;22.53;;;11.60;99.90;;;;;;5131901;27;20225;-69
2023/10/06 07:36:38;;;;;;;20.37;19.60;;;11.70;99.90;;;;;;5130386;27;20292;-69
2023/10/06 07:39:08;;;;;;;22.00;21.20;;;11.90;99.90;;;;;;5131583;27;20221;-69
2023/10/06 07:41:36;;;;;;;19.67;18.97;;;12.00;99.90;;;;;;5131280;27;20240;-67
2023/10/06 07:44:05;;;;;;;19.83;19.13;;;12.10;99.90;;;;;;5131854;27;20236;-69
2023/10/06 07:46:33;;;;;;;19.85;18.95;;;12.20;99.90;;;;;;5131442;27;20220;-69
2023/10/06 07:49:01;;;;;;;17.83;17.23;;;12.40;99.90;;;;;;5129848;27;20201;-69
2023/10/06 07:51:28;;;;;;;19.60;18.90;;;12.50;99.90;;;;;;5131375;27;20205;-68
2023/10/06 07:53:55;;;;;;;21.37;20.57;;;12.60;99.90;;;;;;5129573;27;20249;-69
2023/10/06 07:56:22;;;;;;;21.67;20.87;;;12.80;99.90;;;;;;5131241;27;20205;-69
2023/10/06 07:58:52;;;;;;;21.83;21.03;;;12.90;99.90;;;;;;5124202;27;20317;-67
2023/10/06 08:01:20;;;;;;;20.83;20.03;;;13.10;99.90;;;;;;5134213;27;20247;-68
2023/10/06 08:03:48;;;;;;;16.73;16.13;;;13.20;99.90;;;;;;5121401;27;20289;-68
2023/10/06 08:06:16;;;;;;;16.13;15.52;;;13.40;99.90;;;;;;5135143;27;20296;-69
2023/10/06 08:08:42;;;;;;;14.60;14.10;;;13.60;99.90;;;;;;5134454;27;20746;-67
2023/10/06 08:11:10;;;;;;;13.73;13.23;;;13.70;99.90;;;;;;5116959;27;20206;-67
2023/10/06 08:13:38;;;;;;;13.53;13.03;;;13.90;99.90;;;;;;5124085;27;20702;-67
2023/10/06 08:16:06;;;;;;;12.10;11.70;;;14.20;99.90;;;;;;5131241;27;20870;-67
2023/10/06 08:18:33;;;;;;;12.40;11.90;;;14.40;99.90;;;;;;5130531;27;20233;-67
2023/10/06 08:21:03;;;;;;;11.60;11.20;;;14.60;99.90;;;;;;5129735;27;20676;-68
2023/10/06 08:23:29;;;;;;;12.43;11.93;;;14.60;99.90;;;;;;5130954;28;20224;-68
2023/10/06 08:25:57;;;;;;;12.10;11.70;;;14.80;99.90;;;;;;5131715;28;20218;-68
2023/10/06 08:28:24;;;;;;;13.70;13.20;;;14.80;99.90;;;;;;5131279;28;20205;-68
2023/10/06 08:30:51;;;;;;;12.40;12.00;;;14.90;99.90;;;;;;5125922;27;20205;-67
2023/10/06 08:33:18;;;;;;;13.20;12.70;;;14.90;99.90;;;;;;5136070;27;20232;-67
2023/10/06 08:35:45;;;;;;;13.68;13.18;;;14.90;99.90;;;;;;5136428;27;20594;-67
2023/10/06 08:38:14;;;;;;;14.60;14.02;;;15.10;99.90;;;;;;5134093;27;20442;-67
2023/10/06 08:40:43;;;;;;;13.60;13.10;;;15.00;99.90;;;;;;5124824;27;20209;-67
2023/10/06 08:43:12;;;;;;;13.25;12.75;;;15.10;99.90;;;;;;5138817;27;20758;-67
2023/10/06 08:45:44;;;;;;;14.03;13.53;;;15.30;99.90;;;;;;5143851;27;20295;-69
2023/10/06 08:48:13;;;;;;;13.30;12.80;;;15.40;99.90;;;;;;5142198;27;20208;-67
2023/10/06 08:50:43;;;;;;;12.95;12.45;;;15.50;99.90;;;;;;5129147;27;20232;-68
2023/10/06 08:53:13;;;;;;;13.50;12.90;;;15.50;99.90;;;;;;5143162;27;20279;-66
2023/10/06 08:55:44;;;;;;;13.68;13.18;;;15.70;99.90;;;;;;5147159;27;20209;-67
2023/10/06 08:58:13;;;;;;;13.53;13.03;;;15.80;99.90;;;;;;5136057;27;20212;-67
2023/10/06 09:00:43;;;;;;;13.60;13.10;;;15.90;99.90;;;;;;5135259;27;20220;-67
2023/10/06 09:03:11;;;;;;;13.95;13.45;;;15.90;99.90;;;;;;5132379;27;20233;-68
2023/10/06 09:05:39;;;;;;;12.97;12.47;;;16.00;99.90;;;;;;5133134;27;20254;-68
2023/10/06 09:08:07;;;;;;;13.50;13.00;;;16.10;99.90;;;;;;5128461;27;20210;-68
2023/10/06 09:10:35;;;;;;;14.43;13.90;;;16.20;99.90;;;;;;5135707;27;20217;-67
2023/10/06 09:13:05;;;;;;;14.50;13.90;;;16.30;99.90;;;;;;5136169;27;20229;-67
2023/10/06 09:15:35;;;;;;;13.73;13.23;;;16.30;99.90;;;;;;5135364;27;20300;-67
2023/10/06 09:18:07;;;;;;;13.57;13.07;;;16.40;99.90;;;;;;5125780;27;20251;-66
2023/10/06 09:20:37;;;;;;;14.17;13.67;;;16.50;99.90;;;;;;5115914;27;20213;-68
2023/10/06 09:23:04;;;;;;;13.90;13.40;;;16.50;99.90;;;;;;5111531;27;20237;-68
2023/10/06 09:25:44;;;;;;;13.57;13.07;;;16.60;99.90;;;;;;5121912;27;20296;-67
2023/10/06 09:28:14;;;;;;;13.70;13.20;;;16.60;99.90;;;;;;5118864;27;20198;-66
2023/10/06 09:30:50;;;;;;;13.70;13.20;;;16.70;99.90;;;;;;5112778;27;20317;-67
2023/10/06 09:33:18;;;;;;;13.75;13.25;;;16.80;99.90;;;;;;5116166;27;20300;-67
2023/10/06 09:35:44;;;;;;;14.03;13.53;;;16.90;99.90;;;;;;5120045;27;20201;-66
2023/10/06 09:38:14;;;;;;;13.68;13.18;;;17.10;99.90;;;;;;5123267;27;20202;-67
2023/10/06 09:40:44;;;;;;;14.27;13.77;;;17.10;99.90;;;;;;5116972;27;20213;-66
2023/10/06 09:43:16;;;;;;;13.53;13.03;;;17.30;99.90;;;;;;5115063;27;20226;-68
2023/10/06 09:45:44;;;;;;;14.00;13.50;;;17.30;99.90;;;;;;5110427;28;20288;-68
2023/10/06 09:48:17;;;;;;;13.20;12.70;;;17.30;99.90;;;;;;5113013;27;20263;-66
2023/10/06 09:50:46;;;;;;;13.30;12.80;;;17.40;99.90;;;;;;5104501;27;20197;-68
2023/10/06 09:53:13;;;;;;;14.20;13.70;;;17.40;99.90;;;;;;5117992;27;20221;-66
2023/10/06 09:55:41;;;;;;;14.07;13.53;;;17.40;99.90;;;;;;5122465;27;20294;-67
2023/10/06 09:58:09;;;;;;;13.27;12.77;;;17.50;99.90;;;;;;5128894;27;20613;-66
2023/10/06 10:00:40;;;;;;;13.32;12.82;;;17.50;99.90;;;;;;5126867;27;21054;-66
2023/10/06 10:03:09;;;;;;;13.20;12.70;;;17.60;99.90;;;;;;5121372;27;20232;-67
2023/10/06 10:05:39;;;;;;;13.60;13.10;;;17.70;99.90;;;;;;5122691;27;20213;-67
2023/10/06 10:08:06;;;;;;;13.00;12.50;;;17.80;99.90;;;;;;5114285;27;20580;-67
2023/10/06 10:10:35;;;;;;;13.10;12.60;;;17.90;99.90;;;;;;5116337;27;20232;-67
2023/10/06 10:13:33;;;;;;;12.82;12.32;;;18.20;99.90;;;;;;5116330;27;20253;-67
2023/10/06 10:16:25;;;;;;;13.70;13.10;;;18.10;99.90;;;;;;5114554;27;20204;-66
2023/10/06 10:18:59;;;;;;;13.43;12.93;;;18.40;99.90;;;;;;5114708;27;20676;-67
2023/10/06 10:21:28;;;;;;;13.90;13.40;;;18.40;99.90;;;;;;5116124;27;20212;-67
2023/10/06 10:23:56;;;;;;;14.23;13.73;;;18.30;99.90;;;;;;5119274;27;20213;-67
2023/10/06 10:26:27;;;;;;;13.02;12.52;;;18.20;99.90;;;;;;5134928;27;20288;-66
2023/10/06 10:29:30;;;;;;;14.13;13.63;;;18.10;99.90;;;;;;5133422;27;20209;-66
2023/10/06 10:32:03;;;;;;;13.60;13.10;;;17.90;99.90;;;;;;5116102;27;20276;-66
2023/10/06 10:34:34;;;;;;;12.93;12.43;;;17.70;99.90;;;;;;5110803;28;20197;-66
2023/10/06 10:37:17;;;;;;;12.95;12.45;;;17.90;99.90;;;;;;5112218;28;20697;-67
2023/10/06 10:39:49;;;;;;;13.18;12.68;;;18.30;99.90;;;;;;5110861;28;20283;-68
2023/10/06 10:42:18;;;;;;;13.52;13.02;;;18.60;99.90;;;;;;5111618;27;20749;-68
2023/10/06 10:44:47;;;;;;;14.80;14.20;;;18.50;99.90;;;;;;5108399;27;20203;-68
2023/10/06 10:47:16;;;;;;;13.20;12.70;;;18.50;99.90;;;;;;5098325;27;20206;-67
2023/10/06 10:49:44;;;;;;;13.93;13.35;;;18.60;99.90;;;;;;5109934;27;20221;-67
2023/10/06 10:52:12;;;;;;;13.50;13.00;;;18.60;99.90;;;;;;5121603;27;20308;-65
2023/10/06 10:54:40;;;;;;;14.30;13.70;;;18.60;99.90;;;;;;5112001;27;20198;-66
2023/10/06 10:57:09;;;;;;;13.80;13.30;;;18.60;99.90;;;;;;5125038;27;20248;-67
2023/10/06 11:00:12;;;;;;;14.13;13.63;;;18.70;99.90;;;;;;5129295;27;20303;-68
2023/10/06 11:02:42;;;;;;;14.40;13.70;;;18.70;99.90;;;;;;5115482;27;20251;-67
2023/10/06 11:05:09;;;;;;;14.60;14.00;;;18.90;99.90;;;;;;5117995;28;20252;-67
2023/10/06 11:07:37;;;;;;;14.32;13.82;;;19.20;99.90;;;;;;5104128;27;20198;-67
2023/10/06 11:10:04;;;;;;;14.23;13.73;;;19.30;99.90;;;;;;5108903;28;20198;-66
2023/10/06 11:12:34;;;;;;;15.45;14.85;;;19.20;99.90;;;;;;5109830;27;20695;-67
2023/10/06 11:15:13;;;;;;;14.45;13.95;;;19.20;99.90;;;;;;5103366;28;20718;-66
2023/10/06 11:17:43;;;;;;;14.18;13.68;;;19.10;99.90;;;;;;5100208;28;20210;-67
2023/10/06 11:20:15;;;;;;;14.85;14.27;;;19.10;99.90;;;;;;5108166;28;20576;-67
2023/10/06 11:22:53;;;;;;;14.25;13.75;;;19.20;99.90;;;;;;5104717;28;20222;-67
2023/10/06 11:25:26;;;;;;;14.57;14.02;;;19.00;99.90;;;;;;5110287;27;20587;-66
2023/10/06 11:28:03;;;;;;;13.95;13.45;;;19.10;99.90;;;;;;5107906;27;20298;-67
2023/10/06 11:30:31;;;;;;;14.18;13.68;;;19.20;99.90;;;;;;5102951;28;20216;-66
2023/10/06 11:33:01;;;;;;;14.45;13.95;;;19.30;99.90;;;;;;5094661;28;20226;-67
2023/10/06 11:35:29;;;;;;;15.95;15.35;;;19.40;99.90;;;;;;5109647;27;20213;-67
2023/10/06 11:37:56;;;;;;;15.05;14.45;;;19.40;99.90;;;;;;5103047;27;20218;-67
2023/10/06 11:40:24;;;;;;;15.85;15.10;;;19.20;99.90;;;;;;5095545;28;20392;-67
2023/10/06 11:42:51;;;;;;;15.43;14.82;;;19.40;99.90;;;;;;5104746;27;20252;-66
2023/10/06 11:45:27;;;;;;;14.97;14.47;;;19.50;99.90;;;;;;5105538;27;20214;-67
2023/10/06 11:47:55;;;;;;;15.38;14.77;;;19.60;99.90;;;;;;5109630;27;20209;-67
2023/10/06 11:50:24;;;;;;;14.80;14.20;;;19.70;99.90;;;;;;5112967;27;20206;-67
2023/10/06 11:52:52;;;;;;;14.13;13.63;;;19.80;99.90;;;;;;5105808;27;20229;-67
2023/10/06 11:55:34;;;;;;;13.98;13.48;;;19.80;99.90;;;;;;5097481;28;20567;-67
2023/10/06 11:58:04;;;;;;;14.68;14.07;;;20.00;99.90;;;;;;5093896;28;20248;-67
2023/10/06 12:00:37;;;;;;;14.07;13.57;;;20.10;99.90;;;;;;5100428;28;20705;-67
2023/10/06 12:03:04;;;;;;;15.73;15.13;;;20.10;99.90;;;;;;5093463;28;20241;-67
2023/10/06 12:05:32;;;;;;;15.40;14.80;;;20.10;99.90;;;;;;5103456;27;20228;-66
2023/10/06 12:08:04;;;;;;;14.83;14.20;;;19.90;99.90;;;;;;5113661;27;20294;-68
2023/10/06 12:10:32;;;;;;;14.60;14.10;;;20.00;99.90;;;;;;5104132;27;20678;-66
2023/10/06 12:12:59;;;;;;;15.20;14.60;;;20.00;99.90;;;;;;5097784;28;20634;-67
2023/10/06 12:15:29;;;;;;;14.40;13.90;;;20.00;99.90;;;;;;5110767;27;20205;-67
2023/10/06 12:17:56;;;;;;;15.05;14.48;;;20.00;99.90;;;;;;5107454;28;20317;-67
2023/10/06 12:20:24;;;;;;;14.05;13.55;;;20.10;99.90;;;;;;5106274;28;21451;-67
2023/10/06 12:22:53;;;;;;;14.80;14.20;;;20.20;99.90;;;;;;5110766;28;20310;-67
2023/10/06 12:25:23;;;;;;;13.77;13.27;;;20.20;99.90;;;;;;5096458;28;20271;-68
2023/10/06 12:27:51;;;;;;;13.82;13.32;;;20.30;99.90;;;;;;5102048;28;20202;-66
2023/10/06 12:30:18;;;;;;;14.23;13.73;;;20.50;99.90;;;;;;5095980;28;20198;-67
2023/10/06 12:32:47;;;;;;;15.35;14.82;;;20.50;99.90;;;;;;5115323;28;20234;-66
2023/10/06 12:35:18;;;;;;;14.77;14.27;;;20.50;99.90;;;;;;5106564;28;20212;-67
2023/10/06 12:37:45;;;;;;;14.88;14.38;;;20.50;99.90;;;;;;5112564;28;20206;-67
2023/10/06 12:40:15;;;;;;;14.70;14.20;;;20.60;99.90;;;;;;5117437;28;20289;-68
2023/10/06 12:42:43;;;;;;;13.70;13.20;;;20.60;99.90;;;;;;5102167;28;20317;-67
2023/10/06 12:45:13;;;;;;;14.77;14.27;;;20.60;99.90;;;;;;5094638;28;20262;-68
2023/10/06 12:47:40;;;;;;;14.63;14.10;;;20.60;99.90;;;;;;5102197;28;20201;-66